Time;durP1;ratioP1;P1;durP2;ratioP2;P2;SDS_P1;SDS_P2;PMS_P1;PMS_P2;Temp;Humidity;BMP_temperature;BMP_pressure;BME280_temperature;BME280_humidity;BME280_pressure;Samples;Min_cycle;Max_cycle;Signal;HPM_P1;HPM_P2
2022/01/13 00:00:24;;;;;;;;;;;;;;;-6.10;100.00;97904.94;1034115;28;19971;-73
2022/01/13 00:00:54;;;;;;;;;;;;;;;-6.12;100.00;97910.19;1030196;28;19921;-74
2022/01/13 00:01:34;;;;;;;;;;;;;;;-6.14;100.00;97908.66;1026360;28;20455;-73
2022/01/13 00:02:05;;;;;;;;;;;;;;;-6.17;100.00;97907.09;1026536;28;19914;-73
2022/01/13 00:02:36;;;;;;;;;;;;;;;-6.19;100.00;97908.97;1032349;28;19914;-73
2022/01/13 00:03:07;;;;;;;;;;;;;;;-6.20;100.00;97909.91;1040402;28;19917;-73
2022/01/13 00:03:37;;;;;;;;;;;;;;;-6.18;100.00;97906.28;1038615;28;19917;-72
2022/01/13 00:04:12;;;;;;;;;;;;;;;-6.18;100.00;97908.03;1037223;28;20011;-72
2022/01/13 00:04:43;;;;;;;;;;;;;;;-6.21;100.00;97908.25;1038828;28;19917;-74
2022/01/13 00:05:13;;;;;;;;;;;;;;;-6.19;100.00;97911.53;1031241;28;19940;-73
2022/01/13 00:05:44;;;;;;;;;;;;;;;-6.21;100.00;97903.94;1031288;28;19914;-74
2022/01/13 00:06:14;;;;;;;;;;;;;;;-6.19;100.00;97907.22;1034633;28;19947;-74
2022/01/13 00:06:45;;;;;;;;;;;;;;;-6.19;100.00;97903.84;1034529;28;19914;-73
2022/01/13 00:07:15;;;;;;;;;;;;;;;-6.19;100.00;97901.31;1031008;28;20295;-74
2022/01/13 00:07:45;;;;;;;;;;;;;;;-6.19;100.00;97906.41;1034082;28;19940;-73
2022/01/13 00:08:16;;;;;;;;;;;;;;;-6.23;100.00;97900.69;1034617;28;19924;-73
2022/01/13 00:08:46;;;;;;;;;;;;;;;-6.23;100.00;97899.88;1033808;28;19917;-73
2022/01/13 00:09:16;;;;;;;;;;;;;;;-6.29;100.00;97896.00;1033490;28;19913;-74
2022/01/13 00:09:46;;;;;;;;;;;;;;;-6.38;100.00;97885.59;1034379;28;19952;-72
2022/01/13 00:10:17;;;;;;;;;;;;;;;-6.29;100.00;97900.28;1037967;28;19910;-74
2022/01/13 00:10:47;;;;;;;;;;;;;;;-6.30;100.00;97899.47;1042781;28;19993;-73
2022/01/13 00:11:17;;;;;;;;;;;;;;;-6.28;100.00;97904.47;1043158;28;20333;-73
2022/01/13 00:11:49;;;;;;;;;;;;;;;-6.29;100.00;97897.75;1039297;28;19948;-72
2022/01/13 00:12:21;;;;;;;;;;;;;;;-6.28;100.00;97896.81;1038045;28;19972;-73
2022/01/13 00:13:31;;;;;;;;;;;;;;;-6.26;100.00;97897.53;1042413;28;19913;-73
2022/01/13 00:13:52;;;;;;;;;;;;;;;-6.23;100.00;97900.69;1040013;28;19909;-73
2022/01/13 00:14:36;;;;;;;;;;;;;;;-6.23;100.00;97903.25;1040949;28;19916;-73
2022/01/13 00:17:24;;;;;;;;;;;;;;;-6.29;100.00;97908.78;1039075;28;20364;-72
2022/01/13 00:18:40;;;;;;;;;;;;;;;-6.35;100.00;97898.97;1039369;28;19920;-73
2022/01/13 00:22:13;;;;;;;;;;;;;;;-6.38;100.00;97919.59;1040582;28;19932;-73
2022/01/13 00:23:38;;;;;;;;;;;;;;;-6.44;100.00;97905.53;1039313;28;19928;-72
2022/01/13 00:24:13;;;;;;;;;;;;;;;-6.44;100.00;97914.88;1031586;28;19973;-73
2022/01/13 00:24:46;;;;;;;;;;;;;;;-6.45;100.00;97910.72;1033491;28;20529;-73
2022/01/13 00:25:19;;;;;;;;;;;;;;;-6.44;100.00;97913.19;1030485;28;19969;-74
2022/01/13 00:25:54;;;;;;;;;;;;;;;-6.43;100.00;97916.53;1029380;28;19942;-73
2022/01/13 00:26:26;;;;;;;;;;;;;;;-6.43;100.00;97914.81;1033764;28;19921;-72
2022/01/13 00:26:56;;;;;;;;;;;;;;;-6.41;100.00;97917.25;1033113;28;19910;-73
2022/01/13 00:27:29;;;;;;;;;;;;;;;-6.44;100.00;97914.88;1037830;28;19913;-73
2022/01/13 00:28:02;;;;;;;;;;;;;;;-6.43;100.00;97914.81;1039040;28;19924;-73
2022/01/13 00:28:33;;;;;;;;;;;;;;;-6.42;100.00;97916.44;1038654;28;19913;-73
2022/01/13 00:29:03;;;;;;;;;;;;;;;-6.39;100.00;97914.59;1038253;28;19952;-73
2022/01/13 00:29:34;;;;;;;;;;;;;;;-6.40;100.00;97911.25;1034348;28;19909;-73
2022/01/13 00:30:05;;;;;;;;;;;;;;;-6.40;100.00;97918.91;1033869;28;20010;-72
2022/01/13 00:30:35;;;;;;;;;;;;;;;-6.41;100.00;97918.06;1029960;28;20411;-72
2022/01/13 00:31:07;;;;;;;;;;;;;;;-6.39;100.00;97923.06;1030332;28;20004;-73
2022/01/13 00:31:40;;;;;;;;;;;;;;;-6.44;100.00;97920.84;1031483;28;19909;-72
2022/01/13 00:32:12;;;;;;;;;;;;;;;-6.48;100.00;97924.50;1035272;28;19910;-74
2022/01/13 00:32:43;;;;;;;;;;;;;;;-6.46;100.00;97930.34;1034168;28;19967;-72
2022/01/13 00:33:17;;;;;;;;;;;;;;;-6.47;100.00;97922.75;1027023;28;20629;-73
2022/01/13 00:33:50;;;;;;;;;;;;;;;-6.49;100.00;97920.31;1026465;28;19910;-73
2022/01/13 00:34:20;;;;;;;;;;;;;;;-6.48;100.00;97926.22;1030755;28;19983;-73
2022/01/13 00:34:51;;;;;;;;;;;;;;;-6.51;100.00;97929.81;1031172;28;20538;-73
2022/01/13 00:35:21;;;;;;;;;;;;;;;-6.53;100.00;97929.09;1035310;28;19914;-73
2022/01/13 00:35:55;;;;;;;;;;;;;;;-6.53;100.00;97928.28;1036053;28;19914;-73
2022/01/13 00:36:26;;;;;;;;;;;;;;;-6.58;100.00;97923.47;1038236;28;19914;-73
2022/01/13 00:36:58;;;;;;;;;;;;;;;-6.59;100.00;97921.84;1039043;28;19988;-73
2022/01/13 00:37:28;;;;;;;;;;;;;;;-6.60;100.00;97922.78;1039619;28;19939;-73
2022/01/13 00:37:58;;;;;;;;;;;;;;;-6.57;100.00;97926.84;1038646;28;19956;-73
2022/01/13 00:38:32;;;;;;;;;;;;;;;-6.59;100.00;97923.59;1038408;28;19901;-73
2022/01/13 00:39:03;;;;;;;;;;;;;;;-6.60;100.00;97920.22;1034875;28;19913;-73
2022/01/13 00:39:33;;;;;;;;;;;;;;;-6.59;100.00;97926.94;1038040;28;19906;-73
2022/01/13 00:40:05;;;;;;;;;;;;;;;-6.55;100.00;97925.81;1032532;28;19906;-72
2022/01/13 00:40:36;;;;;;;;;;;;;;;-6.52;100.00;97925.63;1036973;28;20450;-73
2022/01/13 00:41:07;;;;;;;;;;;;;;;-6.51;100.00;97929.00;1037014;28;19926;-73
2022/01/13 00:41:37;;;;;;;;;;;;;;;-6.50;100.00;97931.47;1036740;28;20283;-74
2022/01/13 00:42:08;;;;;;;;;;;;;;;-6.48;100.00;97931.34;1033531;28;20029;-73
2022/01/13 00:42:38;;;;;;;;;;;;;;;-6.49;100.00;97930.53;1031032;28;19925;-74
2022/01/13 00:43:08;;;;;;;;;;;;;;;-6.47;100.00;97932.97;1034470;28;19906;-73
2022/01/13 00:43:41;;;;;;;;;;;;;;;-6.46;100.00;97932.88;1030420;28;19910;-74
2022/01/13 00:44:19;;;;;;;;;;;;;;;-6.45;100.00;97937.06;1030461;28;19910;-73
2022/01/13 00:44:49;;;;;;;;;;;;;;;-6.44;100.00;97938.72;1031697;28;19913;-73
2022/01/13 00:45:19;;;;;;;;;;;;;;;-6.45;100.00;97937.06;1032651;28;20316;-73
2022/01/13 00:45:50;;;;;;;;;;;;;;;-6.60;100.00;97901.53;1035878;28;19914;-73
2022/01/13 00:46:26;;;;;;;;;;;;;;;-6.37;100.00;97938.28;1033575;28;19913;-73
2022/01/13 00:46:59;;;;;;;;;;;;;;;-6.38;100.00;97940.03;1030622;28;19913;-73
2022/01/13 00:47:30;;;;;;;;;;;;;;;-6.36;100.00;97948.41;1035961;28;19913;-73
2022/01/13 00:48:01;;;;;;;;;;;;;;;-6.36;100.00;97945.06;1039172;28;20426;-73
2022/01/13 00:48:31;;;;;;;;;;;;;;;-6.34;100.00;97945.75;1036290;28;19922;-73
2022/01/13 00:49:01;;;;;;;;;;;;;;;-6.36;100.00;97939.94;1038476;28;19909;-74
2022/01/13 00:49:31;;;;;;;;;;;;;;;-6.37;100.00;97943.41;1035528;28;20456;-73
2022/01/13 00:50:03;;;;;;;;;;;;;;;-6.43;100.00;97947.19;1034748;28;19918;-72
2022/01/13 00:50:33;;;;;;;;;;;;;;;-6.44;100.00;97948.94;1037041;28;19913;-73
2022/01/13 00:51:03;;;;;;;;;;;;;;;-6.43;100.00;97953.09;1042131;28;19913;-73
2022/01/13 00:51:34;;;;;;;;;;;;;;;-6.45;100.00;97944.72;1039348;28;20083;-73
2022/01/13 00:52:04;;;;;;;;;;;;;;;-6.46;100.00;97943.09;1034738;28;20441;-73
2022/01/13 00:52:34;;;;;;;;;;;;;;;-6.46;100.00;97945.66;1039433;28;19913;-73
2022/01/13 00:53:05;;;;;;;;;;;;;;;-6.47;100.00;97944.03;1035392;28;19908;-73
2022/01/13 00:53:35;;;;;;;;;;;;;;;-6.50;100.00;97941.66;1035419;28;20012;-74
2022/01/13 00:54:07;;;;;;;;;;;;;;;-6.50;100.00;97943.41;1038866;28;19941;-74
2022/01/13 00:54:37;;;;;;;;;;;;;;;-6.52;100.00;97946.06;1039788;28;19917;-73
2022/01/13 00:55:10;;;;;;;;;;;;;;;-6.55;100.00;97941.16;1039263;28;19913;-73
2022/01/13 00:55:58;;;;;;;;;;;;;;;-6.77;100.00;97905.16;1037160;28;19914;-73
2022/01/13 00:56:28;;;;;;;;;;;;;;;-6.55;100.00;97940.34;1042209;28;19913;-72
2022/01/13 00:56:59;;;;;;;;;;;;;;;-6.58;100.00;97938.78;1038036;28;20474;-72
2022/01/13 00:57:31;;;;;;;;;;;;;;;-6.59;100.00;97936.34;1032336;28;19913;-74
2022/01/13 00:58:01;;;;;;;;;;;;;;;-6.61;100.00;97939.00;1031286;28;19918;-73
2022/01/13 00:58:32;;;;;;;;;;;;;;;-6.62;100.00;97937.38;1031439;28;20005;-73
2022/01/13 00:59:07;;;;;;;;;;;;;;;-6.65;100.00;97935.00;1039140;28;19905;-72
2022/01/13 00:59:37;;;;;;;;;;;;;;;-6.66;100.00;97938.50;1032216;28;19906;-73
2022/01/13 01:00:08;;;;;;;;;;;;;;;-6.64;100.00;97941.75;1030990;28;20371;-73
2022/01/13 01:00:38;;;;;;;;;;;;;;;-6.64;100.00;97939.19;1034931;28;20048;-73
2022/01/13 01:01:08;;;;;;;;;;;;;;;-6.65;100.00;97943.47;1038410;28;19921;-74
2022/01/13 01:01:40;;;;;;;;;;;;;;;-6.65;100.00;97940.94;1035241;28;19909;-74
2022/01/13 01:02:10;;;;;;;;;;;;;;;-6.66;100.00;97938.50;1039280;28;19909;-72
2022/01/13 01:02:40;;;;;;;;;;;;;;;-6.68;100.00;97936.03;1038770;28;19909;-73
2022/01/13 01:03:11;;;;;;;;;;;;;;;-6.65;100.00;97940.13;1031414;28;19914;-74
2022/01/13 01:03:41;;;;;;;;;;;;;;;-6.65;100.00;97940.13;1035340;28;19964;-74
2022/01/13 01:04:11;;;;;;;;;;;;;;;-7.09;100.00;97872.38;1038682;28;19913;-73
2022/01/13 01:04:42;;;;;;;;;;;;;;;-6.65;100.00;97942.66;1035226;28;19937;-73
2022/01/13 01:05:12;;;;;;;;;;;;;;;-6.63;100.00;97935.75;1039192;28;20505;-73
2022/01/13 01:05:42;;;;;;;;;;;;;;;-6.62;100.00;97934.81;1039262;28;19979;-75
2022/01/13 01:06:13;;;;;;;;;;;;;;;-6.66;100.00;97936.75;1037995;28;19980;-73
2022/01/13 01:06:43;;;;;;;;;;;;;;;-6.69;100.00;97933.59;1035110;28;19913;-73
2022/01/13 01:07:13;;;;;;;;;;;;;;;-6.73;100.00;97940.63;1033171;28;19917;-73
2022/01/13 01:07:43;;;;;;;;;;;;;;;-6.72;100.00;97928.69;1032865;28;19918;-73
2022/01/13 01:08:14;;;;;;;;;;;;;;;-6.74;100.00;97931.34;1035212;28;19906;-74
2022/01/13 01:08:45;;;;;;;;;;;;;;;-6.76;100.00;97934.91;1026927;28;20416;-73
2022/01/13 01:09:29;;;;;;;;;;;;;;;-6.79;100.00;97930.81;1030136;28;19914;-74
2022/01/13 01:10:02;;;;;;;;;;;;;;;-6.77;100.00;97926.44;1027185;28;19914;-73
2022/01/13 01:10:32;;;;;;;;;;;;;;;-6.77;100.00;97931.53;1031372;28;19973;-73
2022/01/13 01:11:03;;;;;;;;;;;;;;;-6.72;100.00;97933.78;1036010;28;20004;-73
2022/01/13 01:11:34;;;;;;;;;;;;;;;-6.71;100.00;97928.56;1043730;28;19912;-72
2022/01/13 01:12:05;;;;;;;;;;;;;;;-6.70;100.00;97927.66;1043258;28;20541;-73
2022/01/13 01:12:38;;;;;;;;;;;;;;;-6.71;100.00;97925.19;1043573;28;20347;-73
2022/01/13 01:13:13;;;;;;;;;;;;;;;-6.72;100.00;97923.56;1043546;28;19913;-74
2022/01/13 01:13:46;;;;;;;;;;;;;;;-6.73;100.00;97919.38;1039345;28;19913;-73
2022/01/13 01:14:18;;;;;;;;;;;;;;;-6.75;100.00;97928.88;1036934;28;19905;-73
2022/01/13 01:14:54;;;;;;;;;;;;;;;-6.77;100.00;97933.25;1030908;28;19906;-73
2022/01/13 01:15:25;;;;;;;;;;;;;;;-6.73;100.00;97929.59;1033568;28;19918;-73
2022/01/13 01:15:57;;;;;;;;;;;;;;;-6.74;100.00;97930.50;1035503;28;19937;-72
2022/01/13 01:16:27;;;;;;;;;;;;;;;-6.74;100.00;97930.50;1034464;28;19909;-73
2022/01/13 01:16:57;;;;;;;;;;;;;;;-6.71;100.00;97926.00;1035015;28;19913;-73
2022/01/13 01:17:28;;;;;;;;;;;;;;;-6.73;100.00;97927.84;1031733;28;20415;-73
2022/01/13 01:18:05;;;;;;;;;;;;;;;-6.70;100.00;97929.41;1031074;28;19914;-73
2022/01/13 01:19:08;;;;;;;;;;;;;;;-6.69;100.00;97923.38;1027454;28;19921;-73
2022/01/13 01:19:40;;;;;;;;;;;;;;;-6.71;100.00;97925.19;1031887;28;19917;-74
2022/01/13 01:20:11;;;;;;;;;;;;;;;-6.76;100.00;97922.94;1038837;28;19917;-73
2022/01/13 01:20:50;;;;;;;;;;;;;;;-6.78;100.00;97934.16;1040646;28;19941;-73
2022/01/13 01:22:19;;;;;;;;;;;;;;;-6.76;100.00;97933.16;1039665;28;19913;-74
2022/01/13 01:23:25;;;;;;;;;;;;;;;-6.66;100.00;97931.66;1043762;28;19998;-74
2022/01/13 01:24:13;;;;;;;;;;;;;;;-6.67;100.00;97935.13;1043037;28;20383;-73
2022/01/13 01:25:41;;;;;;;;;;;;;;;-6.71;100.00;97933.66;1039311;28;20517;-73
2022/01/13 01:27:02;;;;;;;;;;;;;;;-6.72;100.00;97933.78;1033284;28;19946;-73
2022/01/13 01:27:15;;;;;;;;;;;;;;;-6.97;100.00;97901.41;1037064;28;19941;-74
2022/01/13 01:27:49;;;;;;;;;;;;;;;-6.79;100.00;97935.09;1037811;28;19963;-73
2022/01/13 01:28:27;;;;;;;;;;;;;;;-6.80;100.00;97938.56;1039797;28;19936;-74
2022/01/13 01:29:08;;;;;;;;;;;;;;;-6.81;100.00;97932.63;1033920;28;19964;-73
2022/01/13 01:29:44;;;;;;;;;;;;;;;-6.79;100.00;97932.53;1033110;28;19921;-73
2022/01/13 01:30:39;;;;;;;;;;;;;;;-6.80;100.00;97936.84;1034280;28;19957;-73
2022/01/13 01:31:11;;;;;;;;;;;;;;;-6.77;100.00;97938.34;1036938;28;20542;-74
2022/01/13 01:31:47;;;;;;;;;;;;;;;-6.78;100.00;97934.97;1038070;28;19924;-72
2022/01/13 01:32:17;;;;;;;;;;;;;;;-6.79;100.00;97940.19;1034558;28;19918;-73
2022/01/13 01:32:48;;;;;;;;;;;;;;;-6.82;100.00;97930.19;1023066;29;19907;-74
2022/01/13 01:33:20;;;;;;;;;;;;;;;-6.85;100.00;97932.94;1026025;28;19926;-74
2022/01/13 01:34:02;;;;;;;;;;;;;;;-6.83;100.00;97937.03;1031489;28;20020;-74
2022/01/13 01:34:53;;;;;;;;;;;;;;;-6.85;100.00;97936.31;1030383;28;20074;-74
2022/01/13 01:35:26;;;;;;;;;;;;;;;-6.86;100.00;97936.41;1035521;28;19952;-73
2022/01/13 01:35:57;;;;;;;;;;;;;;;-6.88;100.00;97939.88;1035110;28;19910;-73
2022/01/13 01:36:27;;;;;;;;;;;;;;;-6.88;100.00;97939.06;1035386;28;19917;-72
2022/01/13 01:36:58;;;;;;;;;;;;;;;-6.88;100.00;97936.50;1031282;28;19953;-73
2022/01/13 01:37:29;;;;;;;;;;;;;;;-6.91;100.00;97939.25;1031211;28;20033;-73
2022/01/13 01:38:00;;;;;;;;;;;;;;;-6.92;100.00;97938.44;1030962;28;19921;-73
2022/01/13 01:38:31;;;;;;;;;;;;;;;-6.91;100.00;97946.91;1032067;28;19917;-73
2022/01/13 01:39:01;;;;;;;;;;;;;;;-6.94;100.00;97935.19;1039795;28;20699;-73
2022/01/13 01:39:32;;;;;;;;;;;;;;;-6.92;100.00;97943.53;1043354;28;19909;-73
2022/01/13 01:40:02;;;;;;;;;;;;;;;-6.86;100.00;97941.53;1043161;28;19947;-73
2022/01/13 01:40:32;;;;;;;;;;;;;;;-6.86;100.00;97941.53;1042190;28;20291;-73
2022/01/13 01:41:03;;;;;;;;;;;;;;;-6.88;100.00;97944.16;1039278;28;20473;-74
2022/01/13 01:41:43;;;;;;;;;;;;;;;-6.91;100.00;97942.63;1043618;28;19959;-72
2022/01/13 01:42:13;;;;;;;;;;;;;;;-6.85;100.00;97943.16;1040105;28;19912;-73
2022/01/13 01:42:46;;;;;;;;;;;;;;;-6.85;100.00;97948.25;1039552;28;19917;-74
2022/01/13 01:43:19;;;;;;;;;;;;;;;-6.85;100.00;97948.25;1035245;28;19979;-73
2022/01/13 01:43:54;;;;;;;;;;;;;;;-6.89;100.00;97948.44;1029644;28;19914;-73
2022/01/13 01:44:29;;;;;;;;;;;;;;;-6.92;100.00;97946.09;1032566;28;20507;-74
2022/01/13 01:45:00;;;;;;;;;;;;;;;-6.91;100.00;97945.19;1036923;28;19912;-72
2022/01/13 01:45:34;;;;;;;;;;;;;;;-6.92;100.00;97956.28;1035874;28;19922;-73
2022/01/13 01:46:04;;;;;;;;;;;;;;;-6.92;100.00;97952.94;1031626;28;19933;-73
2022/01/13 01:46:35;;;;;;;;;;;;;;;-6.92;100.00;97952.94;1027446;28;20005;-74
2022/01/13 01:47:08;;;;;;;;;;;;;;;-6.93;100.00;97946.19;1028750;28;20573;-74
2022/01/13 01:47:39;;;;;;;;;;;;;;;-6.93;100.00;97946.19;1028659;28;19921;-73
2022/01/13 01:48:11;;;;;;;;;;;;;;;-6.90;100.00;97956.22;1036815;28;19909;-73
2022/01/13 01:48:41;;;;;;;;;;;;;;;-6.93;100.00;97953.84;1043965;28;19913;-73
2022/01/13 01:49:16;;;;;;;;;;;;;;;-6.94;100.00;97952.19;1042307;28;20437;-73
2022/01/13 01:49:48;;;;;;;;;;;;;;;-6.92;100.00;97948.63;1036479;28;19940;-73
2022/01/13 01:50:18;;;;;;;;;;;;;;;-6.91;100.00;97954.56;1038831;28;20284;-73
2022/01/13 01:50:58;;;;;;;;;;;;;;;-6.91;100.00;97952.84;1032585;28;19909;-73
2022/01/13 01:51:28;;;;;;;;;;;;;;;-6.87;100.00;97956.03;1028775;28;19921;-74
2022/01/13 01:51:59;;;;;;;;;;;;;;;-6.93;100.00;97954.66;1031405;28;19910;-74
2022/01/13 01:52:29;;;;;;;;;;;;;;;-6.96;100.00;97949.75;1033454;28;19906;-73
2022/01/13 01:53:00;;;;;;;;;;;;;;;-6.98;100.00;97943.94;1040717;28;19945;-74
2022/01/13 01:53:30;;;;;;;;;;;;;;;-6.94;100.00;97952.19;1035378;28;19906;-74
2022/01/13 01:54:01;;;;;;;;;;;;;;;-6.96;100.00;97948.94;1035368;28;19913;-73
2022/01/13 01:54:31;;;;;;;;;;;;;;;-6.91;100.00;97949.44;1034940;28;19914;-73
2022/01/13 01:55:01;;;;;;;;;;;;;;;-6.93;100.00;97946.19;1035913;28;19932;-73
2022/01/13 01:55:32;;;;;;;;;;;;;;;-6.97;100.00;97945.59;1036044;28;20555;-72
2022/01/13 01:56:02;;;;;;;;;;;;;;;-6.96;100.00;97947.22;1032462;28;20001;-71
2022/01/13 01:56:33;;;;;;;;;;;;;;;-6.99;100.00;97947.41;1043742;28;19958;-73
2022/01/13 01:57:03;;;;;;;;;;;;;;;-7.00;100.00;97945.78;1040057;28;19906;-73
2022/01/13 01:57:33;;;;;;;;;;;;;;;-7.01;100.00;97944.13;1039450;28;20304;-73
2022/01/13 01:58:04;;;;;;;;;;;;;;;-7.03;100.00;97948.53;1035815;28;20296;-72
2022/01/13 01:58:36;;;;;;;;;;;;;;;-7.00;100.00;97953.44;1035666;28;19913;-73
2022/01/13 01:59:07;;;;;;;;;;;;;;;-7.02;100.00;97950.16;1036493;28;20322;-73
2022/01/13 01:59:40;;;;;;;;;;;;;;;-7.03;100.00;97948.53;1040177;28;19913;-73
2022/01/13 02:00:12;;;;;;;;;;;;;;;-7.03;100.00;97950.25;1035099;28;19914;-72
2022/01/13 02:00:43;;;;;;;;;;;;;;;-7.05;100.00;97952.88;1036740;28;19914;-72
2022/01/13 02:01:13;;;;;;;;;;;;;;;-7.03;100.00;97945.16;1044424;28;19963;-73
2022/01/13 02:01:44;;;;;;;;;;;;;;;-7.03;100.00;97950.25;1040780;28;19913;-73
2022/01/13 02:02:15;;;;;;;;;;;;;;;-7.05;100.00;97954.63;1036608;28;19956;-74
2022/01/13 02:02:46;;;;;;;;;;;;;;;-7.03;100.00;97953.63;1035420;28;20032;-73
2022/01/13 02:03:16;;;;;;;;;;;;;;;-7.03;100.00;97956.19;1036455;28;19918;-73
2022/01/13 02:03:46;;;;;;;;;;;;;;;-7.04;100.00;97954.53;1040273;28;19913;-72
2022/01/13 02:04:17;;;;;;;;;;;;;;;-7.03;100.00;97951.06;1039773;28;19967;-74
2022/01/13 02:04:47;;;;;;;;;;;;;;;-7.02;100.00;97950.16;1036146;28;20407;-74
2022/01/13 02:05:17;;;;;;;;;;;;;;;-7.06;100.00;97948.72;1036312;28;19914;-73
2022/01/13 02:05:48;;;;;;;;;;;;;;;-7.03;100.00;97950.25;1036112;28;19914;-73
2022/01/13 02:06:19;;;;;;;;;;;;;;;-7.02;100.00;97947.59;1035399;28;19935;-73
2022/01/13 02:06:49;;;;;;;;;;;;;;;-7.01;100.00;97948.41;1040091;28;19913;-73
2022/01/13 02:07:19;;;;;;;;;;;;;;;-7.02;100.00;97947.59;1040253;28;20400;-73
2022/01/13 02:07:50;;;;;;;;;;;;;;;-7.01;100.00;97948.41;1031416;28;19972;-75
2022/01/13 02:08:20;;;;;;;;;;;;;;;-7.01;100.00;97949.22;1031946;28;19917;-72
2022/01/13 02:08:50;;;;;;;;;;;;;;;-7.01;100.00;97944.13;1036041;28;19917;-74
2022/01/13 02:09:21;;;;;;;;;;;;;;;-7.02;100.00;97942.50;1035470;28;19930;-73
2022/01/13 02:09:53;;;;;;;;;;;;;;;-7.03;100.00;97940.88;1039727;28;19936;-73
2022/01/13 02:10:23;;;;;;;;;;;;;;;-7.04;100.00;97944.34;1039513;28;19909;-72
2022/01/13 02:10:53;;;;;;;;;;;;;;;-7.05;100.00;97947.78;1040373;28;20385;-73
2022/01/13 02:11:24;;;;;;;;;;;;;;;-7.04;100.00;97944.34;1039461;28;20044;-72
2022/01/13 02:11:58;;;;;;;;;;;;;;;-7.04;100.00;97944.34;1031951;28;19910;-71
2022/01/13 02:12:52;;;;;;;;;;;;;;;-7.08;100.00;97942.88;1031989;28;19906;-73
2022/01/13 02:13:23;;;;;;;;;;;;;;;-7.13;100.00;97944.91;1030702;28;19913;-73
2022/01/13 02:13:56;;;;;;;;;;;;;;;-7.14;100.00;97946.66;1035344;28;19960;-73
2022/01/13 02:15:04;;;;;;;;;;;;;;;-7.10;100.00;97944.72;1043623;28;19913;-73
2022/01/13 02:15:46;;;;;;;;;;;;;;;-7.10;100.00;97951.56;1040009;28;19981;-73
2022/01/13 02:16:37;;;;;;;;;;;;;;;-7.09;100.00;97945.53;1036167;28;19913;-73
2022/01/13 02:17:10;;;;;;;;;;;;;;;-7.09;100.00;97948.91;1032920;28;20429;-73
2022/01/13 02:17:40;;;;;;;;;;;;;;;-7.11;100.00;97953.28;1035812;28;19921;-73
2022/01/13 02:18:11;;;;;;;;;;;;;;;-7.14;100.00;97951.75;1031299;28;20388;-73
2022/01/13 02:18:41;;;;;;;;;;;;;;;-7.17;100.00;97951.94;1035626;28;19913;-74
2022/01/13 02:19:11;;;;;;;;;;;;;;;-7.17;100.00;97953.69;1035918;28;19941;-73
2022/01/13 02:19:44;;;;;;;;;;;;;;;-7.18;100.00;97950.28;1031353;28;19920;-73
2022/01/13 02:20:20;;;;;;;;;;;;;;;-7.18;100.00;97952.03;1035092;28;20379;-73
2022/01/13 02:20:51;;;;;;;;;;;;;;;-7.14;100.00;97953.50;1038651;28;20594;-73
2022/01/13 02:21:24;;;;;;;;;;;;;;;-7.10;100.00;97951.56;1035527;28;19917;-73
2022/01/13 02:21:54;;;;;;;;;;;;;;;-7.10;100.00;97949.81;1029018;28;20498;-74
2022/01/13 02:22:24;;;;;;;;;;;;;;;-7.29;100.00;97913.66;1028032;28;19978;-72
2022/01/13 02:22:55;;;;;;;;;;;;;;;-7.08;100.00;97945.44;1027910;28;19918;-73
2022/01/13 02:23:34;;;;;;;;;;;;;;;-7.12;100.00;97949.09;1036139;28;19922;-72
2022/01/13 02:24:05;;;;;;;;;;;;;;;-7.12;100.00;97944.00;1041851;28;19917;-73
2022/01/13 02:24:35;;;;;;;;;;;;;;;-7.12;100.00;97949.09;1044143;28;19921;-73
2022/01/13 02:25:06;;;;;;;;;;;;;;;-7.15;100.00;97942.44;1040158;28;19920;-73
2022/01/13 02:25:36;;;;;;;;;;;;;;;-7.17;100.00;97951.13;1035945;28;20012;-73
2022/01/13 02:26:07;;;;;;;;;;;;;;;-7.18;100.00;97944.38;1027612;28;19918;-73
2022/01/13 02:26:37;;;;;;;;;;;;;;;-7.19;100.00;97947.84;1028207;28;19977;-73
2022/01/13 02:27:07;;;;;;;;;;;;;;;-7.19;100.00;97945.31;1031731;28;19956;-73
2022/01/13 02:27:37;;;;;;;;;;;;;;;-7.18;100.00;97946.94;1031929;28;19920;-73
2022/01/13 02:28:08;;;;;;;;;;;;;;;-7.21;100.00;97942.03;1038781;28;19924;-73
2022/01/13 02:28:38;;;;;;;;;;;;;;;-7.22;100.00;97946.31;1035855;28;19970;-73
2022/01/13 02:29:08;;;;;;;;;;;;;;;-7.22;100.00;97945.50;1035915;28;19945;-73
2022/01/13 02:29:39;;;;;;;;;;;;;;;-7.22;100.00;97945.50;1035951;28;19913;-73
2022/01/13 02:30:09;;;;;;;;;;;;;;;-7.21;100.00;97947.13;1030831;28;19928;-73
2022/01/13 02:30:40;;;;;;;;;;;;;;;-7.17;100.00;97948.59;1032483;28;19922;-73
2022/01/13 02:31:11;;;;;;;;;;;;;;;-7.16;100.00;97945.13;1035945;28;19972;-72
2022/01/13 02:31:41;;;;;;;;;;;;;;;-7.17;100.00;97949.41;1040072;28;19913;-72
2022/01/13 02:32:11;;;;;;;;;;;;;;;-7.19;100.00;97951.22;1035887;28;19949;-74
2022/01/13 02:32:42;;;;;;;;;;;;;;;-7.18;100.00;97949.47;1038897;28;19994;-74
2022/01/13 02:33:12;;;;;;;;;;;;;;;-7.17;100.00;97949.41;1037389;28;19955;-73
2022/01/13 02:33:42;;;;;;;;;;;;;;;-7.13;100.00;97950.03;1035858;28;19928;-73
2022/01/13 02:34:13;;;;;;;;;;;;;;;-7.17;100.00;97953.69;1041524;28;20019;-73
2022/01/13 02:34:43;;;;;;;;;;;;;;;-7.17;100.00;97949.41;1040712;28;19913;-73
2022/01/13 02:35:13;;;;;;;;;;;;;;;-7.19;100.00;97950.41;1035835;28;20299;-74
2022/01/13 02:35:43;;;;;;;;;;;;;;;-7.21;100.00;97945.41;1027622;28;19925;-72
2022/01/13 02:36:17;;;;;;;;;;;;;;;-7.21;100.00;97947.13;1027821;28;19914;-73
2022/01/13 02:36:52;;;;;;;;;;;;;;;-7.24;100.00;97943.06;1031512;28;19956;-72
2022/01/13 02:37:23;;;;;;;;;;;;;;;-7.24;100.00;97944.75;1032962;28;19917;-72
2022/01/13 02:37:53;;;;;;;;;;;;;;;-7.25;100.00;97938.03;1032965;28;19945;-72
2022/01/13 02:38:23;;;;;;;;;;;;;;;-7.26;100.00;97944.06;1036442;28;20418;-73
2022/01/13 02:38:54;;;;;;;;;;;;;;;-7.29;100.00;97942.50;1038538;28;19921;-73
2022/01/13 02:39:25;;;;;;;;;;;;;;;-7.28;100.00;97938.22;1037954;28;19976;-72
2022/01/13 02:39:55;;;;;;;;;;;;;;;-7.30;100.00;97943.44;1042043;28;19992;-73
2022/01/13 02:40:25;;;;;;;;;;;;;;;-7.26;100.00;97941.50;1033403;28;19924;-73
2022/01/13 02:40:56;;;;;;;;;;;;;;;-7.26;100.00;97944.88;1038321;28;20015;-74
2022/01/13 02:41:26;;;;;;;;;;;;;;;-7.29;100.00;97942.50;1033806;28;19959;-74
2022/01/13 02:41:56;;;;;;;;;;;;;;;-7.30;100.00;97942.63;1036246;28;19924;-73
2022/01/13 02:42:28;;;;;;;;;;;;;;;-7.29;100.00;97939.16;1035655;28;19983;-73
2022/01/13 02:42:59;;;;;;;;;;;;;;;-7.31;100.00;97941.78;1036130;28;19922;-73
2022/01/13 02:43:30;;;;;;;;;;;;;;;-7.31;100.00;97940.97;1035722;28;19913;-73
2022/01/13 02:44:00;;;;;;;;;;;;;;;-7.31;100.00;97940.97;1032239;28;19922;-73
2022/01/13 02:44:31;;;;;;;;;;;;;;;-7.31;100.00;97935.88;1035879;28;19914;-72
2022/01/13 02:45:14;;;;;;;;;;;;;;;-7.35;100.00;97946.25;1035808;28;19921;-73
2022/01/13 02:46:02;;;;;;;;;;;;;;;-7.36;100.00;97938.72;1033631;28;19925;-73
2022/01/13 02:47:20;;;;;;;;;;;;;;;-7.36;100.00;97936.97;1035928;28;20004;-73
2022/01/13 02:48:26;;;;;;;;;;;;;;;-7.35;100.00;97936.06;1035667;28;19929;-73
2022/01/13 02:48:41;;;;;;;;;;;;;;;-7.36;100.00;97934.44;1035742;28;19949;-73
2022/01/13 02:49:12;;;;;;;;;;;;;;;-7.32;100.00;97936.78;1031692;28;20008;-73
2022/01/13 02:49:42;;;;;;;;;;;;;;;-7.30;100.00;97935.78;1034545;28;20028;-74
2022/01/13 02:50:13;;;;;;;;;;;;;;;-7.33;100.00;97935.97;1035126;28;20570;-73
2022/01/13 02:50:43;;;;;;;;;;;;;;;-7.35;100.00;97933.50;1034289;28;19921;-72
2022/01/13 02:51:13;;;;;;;;;;;;;;;-7.33;100.00;97928.31;1036044;28;19917;-72
2022/01/13 02:51:44;;;;;;;;;;;;;;;-7.29;100.00;97939.97;1035546;28;19925;-73
2022/01/13 02:52:15;;;;;;;;;;;;;;;-7.31;100.00;97935.88;1041154;28;19919;-72
2022/01/13 02:52:45;;;;;;;;;;;;;;;-7.30;100.00;97937.53;1039885;28;19988;-73
2022/01/13 02:53:15;;;;;;;;;;;;;;;-7.29;100.00;97934.88;1044050;28;19920;-72
2022/01/13 02:53:45;;;;;;;;;;;;;;;-7.29;100.00;97934.06;1035456;28;19922;-74
2022/01/13 02:54:16;;;;;;;;;;;;;;;-7.31;100.00;97929.03;1043998;28;19920;-73
2022/01/13 02:54:46;;;;;;;;;;;;;;;-7.26;100.00;97936.41;1039779;28;20370;-73
2022/01/13 02:55:16;;;;;;;;;;;;;;;-7.30;100.00;97933.22;1036001;28;19922;-73
2022/01/13 02:55:47;;;;;;;;;;;;;;;-7.29;100.00;97931.50;1038419;28;19928;-73
2022/01/13 02:56:17;;;;;;;;;;;;;;;-7.27;100.00;97934.78;1039976;28;20577;-74
2022/01/13 02:56:48;;;;;;;;;;;;;;;-7.26;100.00;97928.75;1039970;28;19967;-74